Winchester, TN

8:35 AM CST on February 12, 2016 (GMT -0600)
Decherd | | Change Station
CLOSE
Current Station
Personal Weather Station
Location: Decherd, TN
Elevation: 915 ft
Nearby Weather Stations

Elev 915 ft 35.20 °N, 86.09 °W | Updated 2 minutes ago

Mostly Cloudy
Mostly Cloudy
37.2 °F
Feels Like 37 °F
N
0.0
Wind Variable Wind from NNW
Gusts 5.0 mph

Today
High -- | Low -- °F
--% Chance of Precip.
Yesterday
High -- | Low -- °F
Precip. -- in
Pressure 30.14 in
Visibility 10.0 miles
Clouds Mostly Cloudy 8000 ft
Windchill 37 °F
Dew Point 32 °F
Humidity 81%
Rainfall 0.00 in
Snow Depth Not available.
6:34 AM 5:23 PM
Waxing Crescent, 21% visible
METAR KBGF 121415Z AUTO 32003KT 10SM BKN080 02/M02 A3014 RMK
Pressure 30.14 in
Visibility 10.0 miles
Clouds Mostly Cloudy 8000 ft
Windchill 37 °F
Dew Point 32 °F
Humidity 81%
Rainfall 0.00 in
Snow Depth Not available.
6:34 AM 5:23 PM
Waxing Crescent, 21% visible
METAR KBGF 121415Z AUTO 32003KT 10SM BKN080 02/M02 A3014 RMK

10-Day Weather Forecast

Almanac

Astronomy

Feb. 12, 2016 Rise Set
Actual Time
Civil Twilight
Nautical Twilight
Astronomical Twilight
Moon
Length of Visible Light
Length of Day
Tomorrow will be .
, % of the Moon is Illuminated

Today's Extremes

State Highs State Lows

Community

WunderPhotos

Upload Photos

1,892,316 photos uploaded!

WunderBlog® & News

Nearby

Air Quality

  Air Quality AQ Index Pollutant
Not available.

Snow Depth

Station Depth Elevation

Earthquake Activity

City Distance Mag. Time & Date
Minimum magnitude displayed is 2.5.

Coastal Water Temperatures

Place Temperature

Stations

Nearby Weather Stations

Station Location Temp. Windchill Dew Point Humidity Wind Precip. Elev Updated Type
                   

Watches & Warnings

There are currently no watches in effect.